MSC Lirica — HOPW — position and weather

sailwx.info

Track history (hours):
 
Tides and Currents Weather Stations Pressure Air Temp Water Temp Dewpoint Dewpoint Depression Visibility Wind Speed Wind Dir Waves Ship Positions

MSC Lirica

Operator: Mediterranean Shipping Company

Last reported at 2018-Jul-20 22:53 UTC. Time now 2018-Jul-22 06:54 UTC.
Position N 43°49' E 013°55'.

Length 275 m; draft 6.8 m.

Type: Ship. MMSI: 356042000.

Date/timePositionNaut miles runAvg speedWind from/ knotsBaromVisibWave heightAir tempDewpointWater temp
2018-Jul-20 22:53N 43°49' E 013°55'2420.0
2018-Jul-20 21:40N 44°04' E 013°28'420.0
2018-Jul-20 21:28N 44°06' E 013°23'919.8
2018-Jul-20 21:00N 44°12' E 013°13'1119.7
2018-Jul-20 20:26N 44°22' E 013°08'919.9
2018-Jul-20 19:59N 44°31' E 013°04'1020.1
2018-Jul-20 19:30N 44°40' E 012°60'1220.1
2018-Jul-20 18:55N 44°51' E 012°53'820.3
2018-Jul-20 18:30N 44°58' E 012°47'1019.9
2018-Jul-20 18:00N 45°06' E 012°40'1019.4
2018-Jul-20 17:30N 45°14' E 012°30'1019.5
2018-Jul-20 17:00N 45°23' E 012°29'510.1
2018-Jul-20 16:30N 45°26' E 012°23'2 4.8
2018-Jul-20 16:00N 45°26' E 012°20'1 1.0
2018-Jul-20 15:01N 45°26' E 012°19'0 0.0
2018-Jul-20 14:49N 45°26' E 012°19'0 0.0
2018-Jul-20 12:57N 45°26' E 012°19'0 0.0
2018-Jul-20 11:44N 45°26' E 012°19'0 0.0
2018-Jul-20 11:17N 45°26' E 012°19'0 0.0
2018-Jul-20 10:53N 45°26' E 012°19'0 0.0
2018-Jul-20 05:40N 45°26' E 012°19'1 2.4
2018-Jul-20 05:18N 45°26' E 012°20'2 5.0
2018-Jul-20 04:59N 45°25' E 012°22'3 5.9
2018-Jul-20 04:28N 45°25' E 012°26'510.6
2018-Jul-20 04:00N 45°22' E 012°32'815.0
2018-Jul-20 03:30N 45°15' E 012°36'816.7
2018-Jul-20 03:00N 45°10' E 012°46'916.6
2018-Jul-20 02:28N 45°06' E 012°57'919.4
2018-Jul-20 01:59N 45°01' E 013°08'1020.3
2018-Jul-20 01:30N 44°56' E 013°20'1019.6
2018-Jul-20 01:00N 44°49' E 013°29'1020.2
2018-Jul-20 00:30N 44°40' E 013°37'1019.9
2018-Jul-19 23:59N 44°32' E 013°45'1019.8
2018-Jul-19 23:30N 44°24' E 013°52'1020.3
2018-Jul-19 23:00N 44°15' E 013°60'1020.2
2018-Jul-19 22:30N 44°07' E 014°07'1020.3
2018-Jul-19 22:00N 43°58' E 014°15'  
2018-Jul-17 15:38N 35°57' E 023°29'219.0
2018-Jul-17 15:30N 35°56' E 023°32'1119.5
2018-Jul-17 14:57N 35°52' E 023°44'1019.6
2018-Jul-17 14:28N 35°48' E 023°56'919.3
2018-Jul-17 14:00N 35°45' E 024°06'1019.5
2018-Jul-17 13:29N 35°41' E 024°17'919.6
2018-Jul-17 13:00N 35°38' E 024°28'1019.9
2018-Jul-17 12:30N 35°34' E 024°39'1120.1
2018-Jul-17 11:59N 35°30' E 024°51'50 3.9
2018-Jul-16 23:11N 36°20' E 024°53'214.1
2018-Jul-16 23:00N 36°23' E 024°52'4315.2
2018-Jul-16 20:11N 37°05' E 024°57'318.3
2018-Jul-16 20:00N 37°08' E 024°58'1018.3
2018-Jul-16 19:29N 37°17' E 025°04'918.5
2018-Jul-16 19:00N 37°25' E 025°09'814.4
2018-Jul-16 18:25N 37°28' E 025°19'0 0.9
2018-Jul-16 17:58N 37°28' E 025°19'0 0.0
2018-Jul-16 17:18N 37°28' E 025°19'0 0.0
2018-Jul-16 17:00N 37°28' E 025°19'0 0.0
2018-Jul-16 16:30N 37°28' E 025°19'0 0.0
2018-Jul-16 16:00N 37°28' E 025°19'0 0.0
2018-Jul-16 15:30N 37°28' E 025°19'0 0.0
2018-Jul-16 14:56N 37°28' E 025°19'0 0.0
2018-Jul-16 14:23N 37°28' E 025°19'0 0.0
2018-Jul-16 13:59N 37°28' E 025°19'0 0.0
2018-Jul-16 13:29N 37°28' E 025°19'0 0.0
2018-Jul-16 12:59N 37°28' E 025°19'0 0.0
2018-Jul-16 12:28N 37°28' E 025°19'0 0.0
2018-Jul-16 11:58N 37°28' E 025°19'0 0.0
2018-Jul-16 11:28N 37°28' E 025°19'0 0.0
2018-Jul-16 10:55N 37°28' E 025°19'0 0.0
2018-Jul-16 10:31N 37°28' E 025°19'0 0.0
2018-Jul-16 10:00N 37°28' E 025°19'0 0.0
2018-Jul-16 09:30N 37°28' E 025°19'0 0.0
2018-Jul-16 09:00N 37°28' E 025°19'0 0.0
2018-Jul-16 08:30N 37°28' E 025°19'0 0.0
2018-Jul-16 07:59N 37°28' E 025°19'0 0.0
2018-Jul-16 07:29N 37°28' E 025°19'0 0.0
2018-Jul-16 06:59N 37°28' E 025°19'0 0.0
2018-Jul-16 06:29N 37°28' E 025°19'0 0.0
2018-Jul-16 05:53N 37°28' E 025°19'0 0.0
2018-Jul-16 05:28N 37°28' E 025°19'0 0.0
2018-Jul-16 04:52N 37°28' E 025°19'0 0.0
2018-Jul-16 04:28N 37°28' E 025°19'0 0.0
2018-Jul-16 03:58N 37°28' E 025°19'0 0.0
2018-Jul-16 03:30N 37°28' E 025°19'3 5.4
2018-Jul-16 03:00N 37°28' E 025°16'511.1
2018-Jul-16 02:30N 37°26' E 025°10'711.5
2018-Jul-16 01:53N 37°20' E 025°04'512.2
2018-Jul-16 01:30N 37°17' E 024°59'612.4
2018-Jul-16 01:00N 37°14' E 024°53'5713.6
2018-Jul-15 20:48N 36°43' E 023°53'414.3
2018-Jul-15 20:30N 36°41' E 023°48'714.1
2018-Jul-15 20:01N 36°37' E 023°41'714.1
2018-Jul-15 19:30N 36°33' E 023°34'59413.7
2018-Jul-14 00:08N 43°31' E 014°23'320.7
2018-Jul-14 00:00N 43°33' E 014°21'1020.7
2018-Jul-13 23:30N 43°41' E 014°10'1120.8
2018-Jul-13 23:00N 43°48' E 013°59'1420.7
2018-Jul-13 22:19N 43°56' E 013°43'1220.4
2018-Jul-13 21:44N 44°03' E 013°30'720.3
2018-Jul-13 21:22N 44°07' E 013°21'820.1
2018-Jul-13 20:59N 44°12' E 013°13'1020.3
2018-Jul-13 20:30N 44°21' E 013°08'1020.2
2018-Jul-13 20:00N 44°30' E 013°04'1020.1
2018-Jul-13 19:30N 44°40' E 012°60'1019.9
2018-Jul-13 19:00N 44°49' E 012°54'1020.1
2018-Jul-13 18:30N 44°58' E 012°48'1019.9
2018-Jul-13 18:00N 45°07' E 012°41'1019.4
2018-Jul-13 17:30N 45°13' E 012°31'1019.2
2018-Jul-13 17:00N 45°23' E 012°29'510.4
2018-Jul-13 16:30N 45°26' E 012°24'2 4.8
2018-Jul-13 16:00N 45°26' E 012°20'1 0.8
2018-Jul-13 14:28N 45°26' E 012°19'0 0.0
2018-Jul-13 12:30N 45°26' E 012°19'0 0.0
2018-Jul-13 11:57N 45°26' E 012°19'0 0.0
2018-Jul-13 11:30N 45°26' E 012°19'0 0.0
2018-Jul-13 10:38N 45°26' E 012°19'0 0.0
2018-Jul-13 10:20N 45°26' E 012°19'0 0.0
2018-Jul-13 09:56N 45°26' E 012°19'0 0.0
2018-Jul-13 08:47N 45°26' E 012°19'0 0.0
2018-Jul-13 08:22N 45°26' E 012°19'0 0.0
2018-Jul-13 07:52N 45°26' E 012°19'0 0.0
2018-Jul-13 07:25N 45°26' E 012°19'0 0.0
2018-Jul-13 06:10N 45°26' E 012°19'0 0.0
2018-Jul-13 05:43N 45°26' E 012°19'0 1.2
2018-Jul-13 05:30N 45°26' E 012°19'3 5.2
2018-Jul-13 04:59N 45°25' E 012°22'3 6.0
2018-Jul-13 04:30N 45°25' E 012°26'510.1
2018-Jul-13 04:00N 45°22' E 012°32'815.9
2018-Jul-13 03:30N 45°14' E 012°37'917.3
2018-Jul-13 02:59N 45°09' E 012°46'917.7
2018-Jul-13 02:30N 45°05' E 012°57'917.6
2018-Jul-13 01:59N 45°00' E 013°08'917.6
2018-Jul-13 01:29N 44°57' E 013°20'817.5
2018-Jul-13 01:00N 44°50' E 013°27'917.6
2018-Jul-13 00:30N 44°43' E 013°34'917.4
2018-Jul-13 00:00N 44°35' E 013°41'817.4
2018-Jul-12 23:30N 44°28' E 013°48'917.5
2018-Jul-12 22:59N 44°21' E 013°55'917.4
2018-Jul-12 22:29N 44°13' E 014°01'917.8
2018-Jul-12 22:00N 44°06' E 014°08'918.2
2018-Jul-12 21:30N 43°59' E 014°15'1019.1
2018-Jul-12 20:59N 43°51' E 014°23'  
Track history (hours):
 
Tides and Currents Weather Stations Pressure Air Temp Water Temp Dewpoint Dewpoint Depression Visibility Wind Speed Wind Dir Waves Ship Positions

MSC Lirica

Operator: Mediterranean Shipping Company

Last reported at 2018-Jul-20 22:53 UTC. Time now 2018-Jul-22 06:54 UTC.
Position N 43°49' E 013°55'.

Length 275 m; draft 6.8 m.

Type: Ship. MMSI: 356042000.

Date/timePositionNaut miles runAvg speedWind from/ knotsBaromVisibWave heightAir tempDewpointWater temp
2018-Jul-20 22:53N 43°49' E 013°55'2420.0
2018-Jul-20 21:40N 44°04' E 013°28'420.0
2018-Jul-20 21:28N 44°06' E 013°23'919.8
2018-Jul-20 21:00N 44°12' E 013°13'1119.7
2018-Jul-20 20:26N 44°22' E 013°08'919.9
2018-Jul-20 19:59N 44°31' E 013°04'1020.1
2018-Jul-20 19:30N 44°40' E 012°60'1220.1
2018-Jul-20 18:55N 44°51' E 012°53'820.3
2018-Jul-20 18:30N 44°58' E 012°47'1019.9
2018-Jul-20 18:00N 45°06' E 012°40'1019.4
2018-Jul-20 17:30N 45°14' E 012°30'1019.5
2018-Jul-20 17:00N 45°23' E 012°29'510.1
2018-Jul-20 16:30N 45°26' E 012°23'2 4.8
2018-Jul-20 16:00N 45°26' E 012°20'1 1.0
2018-Jul-20 15:01N 45°26' E 012°19'0 0.0
2018-Jul-20 14:49N 45°26' E 012°19'0 0.0
2018-Jul-20 12:57N 45°26' E 012°19'0 0.0
2018-Jul-20 11:44N 45°26' E 012°19'0 0.0
2018-Jul-20 11:17N 45°26' E 012°19'0 0.0
2018-Jul-20 10:53N 45°26' E 012°19'0 0.0
2018-Jul-20 05:40N 45°26' E 012°19'1 2.4
2018-Jul-20 05:18N 45°26' E 012°20'2 5.0
2018-Jul-20 04:59N 45°25' E 012°22'3 5.9
2018-Jul-20 04:28N 45°25' E 012°26'510.6
2018-Jul-20 04:00N 45°22' E 012°32'815.0
2018-Jul-20 03:30N 45°15' E 012°36'816.7
2018-Jul-20 03:00N 45°10' E 012°46'916.6
2018-Jul-20 02:28N 45°06' E 012°57'919.4
2018-Jul-20 01:59N 45°01' E 013°08'1020.3
2018-Jul-20 01:30N 44°56' E 013°20'1019.6
2018-Jul-20 01:00N 44°49' E 013°29'1020.2
2018-Jul-20 00:30N 44°40' E 013°37'1019.9
2018-Jul-19 23:59N 44°32' E 013°45'1019.8
2018-Jul-19 23:30N 44°24' E 013°52'1020.3
2018-Jul-19 23:00N 44°15' E 013°60'1020.2
2018-Jul-19 22:30N 44°07' E 014°07'1020.3
2018-Jul-19 22:00N 43°58' E 014°15'  
2018-Jul-17 15:38N 35°57' E 023°29'219.0
2018-Jul-17 15:30N 35°56' E 023°32'1119.5
2018-Jul-17 14:57N 35°52' E 023°44'1019.6
2018-Jul-17 14:28N 35°48' E 023°56'919.3
2018-Jul-17 14:00N 35°45' E 024°06'1019.5
2018-Jul-17 13:29N 35°41' E 024°17'919.6
2018-Jul-17 13:00N 35°38' E 024°28'1019.9
2018-Jul-17 12:30N 35°34' E 024°39'1120.1
2018-Jul-17 11:59N 35°30' E 024°51'50 3.9
2018-Jul-16 23:11N 36°20' E 024°53'214.1
2018-Jul-16 23:00N 36°23' E 024°52'4315.2
2018-Jul-16 20:11N 37°05' E 024°57'318.3
2018-Jul-16 20:00N 37°08' E 024°58'1018.3
2018-Jul-16 19:29N 37°17' E 025°04'918.5
2018-Jul-16 19:00N 37°25' E 025°09'814.4
2018-Jul-16 18:25N 37°28' E 025°19'0 0.9
2018-Jul-16 17:58N 37°28' E 025°19'0 0.0
2018-Jul-16 17:18N 37°28' E 025°19'0 0.0
2018-Jul-16 17:00N 37°28' E 025°19'0 0.0
2018-Jul-16 16:30N 37°28' E 025°19'0 0.0
2018-Jul-16 16:00N 37°28' E 025°19'0 0.0
2018-Jul-16 15:30N 37°28' E 025°19'0 0.0
2018-Jul-16 14:56N 37°28' E 025°19'0 0.0
2018-Jul-16 14:23N 37°28' E 025°19'0 0.0
2018-Jul-16 13:59N 37°28' E 025°19'0 0.0
2018-Jul-16 13:29N 37°28' E 025°19'0 0.0
2018-Jul-16 12:59N 37°28' E 025°19'0 0.0
2018-Jul-16 12:28N 37°28' E 025°19'0 0.0
2018-Jul-16 11:58N 37°28' E 025°19'0 0.0
2018-Jul-16 11:28N 37°28' E 025°19'0 0.0
2018-Jul-16 10:55N 37°28' E 025°19'0 0.0
2018-Jul-16 10:31N 37°28' E 025°19'0 0.0
2018-Jul-16 10:00N 37°28' E 025°19'0 0.0
2018-Jul-16 09:30N 37°28' E 025°19'0 0.0
2018-Jul-16 09:00N 37°28' E 025°19'0 0.0
2018-Jul-16 08:30N 37°28' E 025°19'0 0.0
2018-Jul-16 07:59N 37°28' E 025°19'0 0.0
2018-Jul-16 07:29N 37°28' E 025°19'0 0.0
2018-Jul-16 06:59N 37°28' E 025°19'0 0.0
2018-Jul-16 06:29N 37°28' E 025°19'0 0.0
2018-Jul-16 05:53N 37°28' E 025°19'0 0.0
2018-Jul-16 05:28N 37°28' E 025°19'0 0.0
2018-Jul-16 04:52N 37°28' E 025°19'0 0.0
2018-Jul-16 04:28N 37°28' E 025°19'0 0.0
2018-Jul-16 03:58N 37°28' E 025°19'0 0.0
2018-Jul-16 03:30N 37°28' E 025°19'3 5.4
2018-Jul-16 03:00N 37°28' E 025°16'511.1
2018-Jul-16 02:30N 37°26' E 025°10'711.5
2018-Jul-16 01:53N 37°20' E 025°04'512.2
2018-Jul-16 01:30N 37°17' E 024°59'612.4
2018-Jul-16 01:00N 37°14' E 024°53'5713.6
2018-Jul-15 20:48N 36°43' E 023°53'414.3
2018-Jul-15 20:30N 36°41' E 023°48'714.1
2018-Jul-15 20:01N 36°37' E 023°41'714.1
2018-Jul-15 19:30N 36°33' E 023°34'59413.7
2018-Jul-14 00:08N 43°31' E 014°23'320.7
2018-Jul-14 00:00N 43°33' E 014°21'1020.7
2018-Jul-13 23:30N 43°41' E 014°10'1120.8
2018-Jul-13 23:00N 43°48' E 013°59'1420.7
2018-Jul-13 22:19N 43°56' E 013°43'1220.4
2018-Jul-13 21:44N 44°03' E 013°30'720.3
2018-Jul-13 21:22N 44°07' E 013°21'820.1
2018-Jul-13 20:59N 44°12' E 013°13'1020.3
2018-Jul-13 20:30N 44°21' E 013°08'1020.2
2018-Jul-13 20:00N 44°30' E 013°04'1020.1
2018-Jul-13 19:30N 44°40' E 012°60'1019.9
2018-Jul-13 19:00N 44°49' E 012°54'1020.1
2018-Jul-13 18:30N 44°58' E 012°48'1019.9
2018-Jul-13 18:00N 45°07' E 012°41'1019.4
2018-Jul-13 17:30N 45°13' E 012°31'1019.2
2018-Jul-13 17:00N 45°23' E 012°29'510.4
2018-Jul-13 16:30N 45°26' E 012°24'2 4.8
2018-Jul-13 16:00N 45°26' E 012°20'1 0.8
2018-Jul-13 14:28N 45°26' E 012°19'0 0.0
2018-Jul-13 12:30N 45°26' E 012°19'0 0.0
2018-Jul-13 11:57N 45°26' E 012°19'0 0.0
2018-Jul-13 11:30N 45°26' E 012°19'0 0.0
2018-Jul-13 10:38N 45°26' E 012°19'0 0.0
2018-Jul-13 10:20N 45°26' E 012°19'0 0.0
2018-Jul-13 09:56N 45°26' E 012°19'0 0.0
2018-Jul-13 08:47N 45°26' E 012°19'0 0.0
2018-Jul-13 08:22N 45°26' E 012°19'0 0.0
2018-Jul-13 07:52N 45°26' E 012°19'0 0.0
2018-Jul-13 07:25N 45°26' E 012°19'0 0.0
2018-Jul-13 06:10N 45°26' E 012°19'0 0.0
2018-Jul-13 05:43N 45°26' E 012°19'0 1.2
2018-Jul-13 05:30N 45°26' E 012°19'3 5.2
2018-Jul-13 04:59N 45°25' E 012°22'3 6.0
2018-Jul-13 04:30N 45°25' E 012°26'510.1
2018-Jul-13 04:00N 45°22' E 012°32'815.9
2018-Jul-13 03:30N 45°14' E 012°37'917.3
2018-Jul-13 02:59N 45°09' E 012°46'917.7
2018-Jul-13 02:30N 45°05' E 012°57'917.6
2018-Jul-13 01:59N 45°00' E 013°08'917.6
2018-Jul-13 01:29N 44°57' E 013°20'817.5
2018-Jul-13 01:00N 44°50' E 013°27'917.6
2018-Jul-13 00:30N 44°43' E 013°34'917.4
2018-Jul-13 00:00N 44°35' E 013°41'817.4
2018-Jul-12 23:30N 44°28' E 013°48'917.5
2018-Jul-12 22:59N 44°21' E 013°55'917.4
2018-Jul-12 22:29N 44°13' E 014°01'917.8
2018-Jul-12 22:00N 44°06' E 014°08'918.2
2018-Jul-12 21:30N 43°59' E 014°15'1019.1
2018-Jul-12 20:59N 43°51' E 014°23'  

Dump ship's entire track history